createdAt,value
2019-01-18T00:01:21.009Z,20.87
2019-01-18T00:03:47.444Z,20.83
2019-01-18T00:06:13.845Z,20.86
2019-01-18T00:08:40.238Z,20.85
2019-01-18T00:11:06.595Z,20.81
2019-01-18T00:13:32.947Z,20.78
2019-01-18T00:15:59.280Z,20.79
2019-01-18T00:18:25.613Z,20.79
2019-01-18T00:20:51.950Z,20.76
2019-01-18T00:23:18.476Z,20.75
2019-01-18T00:25:44.818Z,20.75
2019-01-18T00:28:11.158Z,20.73
2019-01-18T00:30:37.578Z,20.70
2019-01-18T00:33:04.000Z,20.71
2019-01-18T00:35:30.437Z,20.68
2019-01-18T00:37:56.810Z,20.68
2019-01-18T00:40:32.046Z,20.65
2019-01-18T00:42:58.427Z,20.64
2019-01-18T00:45:24.759Z,20.65
2019-01-18T00:47:51.164Z,20.62
2019-01-18T00:50:17.450Z,20.61
2019-01-18T00:52:43.839Z,20.62
2019-01-18T00:55:10.166Z,20.60
2019-01-18T00:57:36.516Z,20.59
2019-01-18T01:00:02.901Z,20.56
2019-01-18T01:02:29.231Z,20.62
2019-01-18T01:04:55.723Z,20.75
2019-01-18T01:07:22.162Z,20.86
2019-01-18T01:09:48.585Z,20.90
2019-01-18T01:12:14.916Z,20.87
2019-01-18T01:14:41.230Z,20.87
2019-01-18T01:17:07.577Z,20.94
2019-01-18T01:19:33.963Z,20.95
2019-01-18T01:22:00.318Z,21.02
2019-01-18T01:24:26.720Z,20.96
2019-01-18T01:26:53.180Z,21.00
2019-01-18T01:29:19.560Z,21.00
2019-01-18T01:31:45.925Z,21.03
2019-01-18T01:34:12.277Z,21.03
2019-01-18T01:36:38.629Z,21.08
2019-01-18T01:39:04.961Z,21.09
2019-01-18T01:41:31.306Z,21.13
2019-01-18T01:43:57.646Z,21.11
2019-01-18T01:46:23.967Z,21.13
2019-01-18T01:48:50.340Z,21.18
2019-01-18T01:51:16.673Z,21.22
2019-01-18T01:53:43.015Z,21.24
2019-01-18T01:56:09.363Z,21.25
2019-01-18T01:58:35.738Z,21.27
2019-01-18T02:01:02.061Z,21.31
2019-01-18T02:03:28.547Z,21.33
2019-01-18T02:05:54.935Z,21.33
2019-01-18T02:08:21.355Z,21.34
2019-01-18T02:10:47.671Z,21.35
2019-01-18T02:13:14.008Z,21.35
2019-01-18T02:15:40.346Z,21.36
2019-01-18T02:18:06.676Z,21.36
2019-01-18T02:20:33.003Z,21.36
2019-01-18T02:22:59.326Z,21.37
2019-01-18T02:25:25.693Z,21.36
2019-01-18T02:27:52.029Z,21.39
2019-01-18T02:30:18.364Z,21.40
2019-01-18T02:32:44.718Z,21.43
2019-01-18T02:35:11.089Z,21.45
2019-01-18T02:37:37.430Z,21.42
2019-01-18T02:40:03.756Z,21.44
2019-01-18T02:42:30.127Z,21.44
2019-01-18T02:44:56.408Z,21.46
2019-01-18T02:47:22.844Z,21.50
2019-01-18T02:49:49.176Z,21.48
2019-01-18T02:52:15.591Z,21.45
2019-01-18T02:54:42.023Z,21.49
2019-01-18T02:57:08.360Z,21.49
2019-01-18T02:59:34.690Z,21.48
2019-01-18T03:02:01.060Z,21.49
2019-01-18T03:04:27.399Z,21.49
2019-01-18T03:06:53.729Z,21.48
2019-01-18T03:09:20.089Z,21.51
2019-01-18T03:11:46.419Z,21.48
2019-01-18T03:14:12.773Z,21.52
2019-01-18T03:16:39.203Z,21.52
2019-01-18T03:19:05.585Z,21.49
2019-01-18T03:21:31.914Z,21.52
2019-01-18T03:23:58.297Z,21.53
2019-01-18T03:26:24.636Z,21.54
2019-01-18T03:28:51.071Z,21.55
2019-01-18T03:31:17.449Z,21.51
2019-01-18T03:33:43.774Z,21.53
2019-01-18T03:36:10.103Z,21.51
2019-01-18T03:38:36.433Z,21.52
2019-01-18T03:41:02.770Z,21.54
2019-01-18T03:43:29.093Z,21.55
2019-01-18T03:45:55.497Z,21.51
2019-01-18T03:48:21.825Z,21.54
2019-01-18T03:50:48.190Z,21.54
2019-01-18T03:53:14.555Z,21.59
2019-01-18T03:55:40.918Z,21.61
2019-01-18T03:58:07.258Z,21.59
2019-01-18T04:00:33.660Z,21.63
2019-01-18T04:02:59.953Z,21.55
2019-01-18T04:05:26.288Z,21.65
2019-01-18T04:07:52.670Z,21.70
2019-01-18T04:10:19.003Z,21.78
2019-01-18T04:12:45.325Z,21.83
2019-01-18T04:15:11.673Z,21.84
2019-01-18T04:17:38.103Z,21.89
2019-01-18T04:20:04.416Z,21.92
2019-01-18T04:22:30.842Z,21.94
2019-01-18T04:24:57.175Z,21.96
2019-01-18T04:27:23.564Z,21.98
2019-01-18T04:29:49.902Z,22.01
2019-01-18T04:32:16.283Z,22.03
2019-01-18T04:34:42.614Z,22.05
2019-01-18T04:37:08.958Z,22.08
2019-01-18T04:39:35.289Z,22.08
2019-01-18T04:42:01.642Z,22.12
2019-01-18T04:44:28.025Z,22.13
2019-01-18T04:46:54.358Z,22.14
2019-01-18T04:49:20.682Z,22.16
2019-01-18T04:51:47.019Z,22.19
2019-01-18T04:54:13.430Z,22.20
2019-01-18T04:56:39.777Z,22.20
2019-01-18T04:59:06.103Z,22.20
2019-01-18T05:01:32.430Z,22.21
2019-01-18T05:03:58.765Z,22.23
2019-01-18T05:06:25.182Z,22.22
2019-01-18T05:08:51.564Z,22.27
2019-01-18T05:11:17.966Z,22.29
2019-01-18T05:13:44.306Z,22.27
2019-01-18T05:16:10.636Z,22.27
2019-01-18T05:18:37.068Z,22.29
2019-01-18T05:21:03.402Z,22.27
2019-01-18T05:23:29.752Z,22.31
2019-01-18T05:25:56.161Z,22.28
2019-01-18T05:28:22.494Z,22.29
2019-01-18T05:30:48.822Z,22.22
2019-01-18T05:33:15.237Z,22.18
2019-01-18T05:35:41.564Z,22.27
2019-01-18T05:38:07.955Z,22.36
2019-01-18T05:40:34.314Z,22.38
2019-01-18T05:43:00.633Z,22.40
2019-01-18T05:45:26.962Z,22.41
2019-01-18T05:47:53.307Z,22.42
2019-01-18T05:50:19.682Z,22.39
2019-01-18T05:52:46.013Z,22.42
2019-01-18T05:55:12.448Z,22.35
2019-01-18T05:57:38.849Z,22.38
2019-01-18T06:00:05.184Z,22.43
2019-01-18T06:02:31.652Z,22.48
2019-01-18T06:04:58.040Z,22.48
2019-01-18T06:07:24.375Z,22.38
2019-01-18T06:09:50.704Z,22.47
2019-01-18T06:12:17.052Z,22.41
2019-01-18T06:14:43.396Z,22.44
2019-01-18T06:17:09.735Z,22.53
2019-01-18T06:19:36.056Z,22.63
2019-01-18T06:22:02.388Z,22.69
2019-01-18T06:24:28.793Z,22.71
2019-01-18T06:26:55.199Z,22.86
2019-01-18T06:29:21.555Z,22.81
2019-01-18T06:31:47.963Z,22.80
2019-01-18T06:34:14.297Z,22.81
2019-01-18T06:36:40.722Z,22.87
2019-01-18T06:39:07.006Z,22.98
2019-01-18T06:41:33.334Z,23.00
2019-01-18T06:43:59.762Z,23.14
2019-01-18T06:46:26.314Z,23.11
2019-01-18T06:48:52.735Z,23.11
2019-01-18T06:51:19.097Z,23.11
2019-01-18T06:53:45.432Z,23.24
2019-01-18T06:56:11.806Z,23.16
2019-01-18T06:58:38.151Z,23.30
2019-01-18T07:01:08.468Z,23.41
2019-01-18T07:03:30.994Z,23.52
2019-01-18T07:05:57.348Z,23.46
2019-01-18T07:08:23.781Z,23.44
2019-01-18T07:10:50.133Z,23.58
2019-01-18T07:13:16.941Z,23.54
2019-01-18T07:15:43.273Z,23.60
2019-01-18T07:18:09.652Z,23.52
2019-01-18T07:20:35.944Z,23.60
2019-01-18T07:23:02.372Z,23.60
2019-01-18T07:25:28.725Z,23.67
2019-01-18T07:27:55.124Z,23.66
2019-01-18T07:30:21.452Z,23.70
2019-01-18T07:32:47.789Z,23.74
2019-01-18T07:35:14.153Z,23.82
2019-01-18T07:37:40.492Z,23.94
2019-01-18T07:40:06.830Z,23.94
2019-01-18T07:42:33.160Z,23.87
2019-01-18T07:44:59.568Z,23.95
2019-01-18T07:47:28.082Z,23.91
2019-01-18T07:49:54.451Z,24.05
2019-01-18T07:52:20.755Z,24.02
2019-01-18T07:54:47.092Z,24.15
2019-01-18T07:57:13.463Z,24.00
2019-01-18T07:59:39.802Z,24.08
2019-01-18T08:02:06.181Z,24.15
2019-01-18T08:04:32.518Z,24.02
2019-01-18T08:06:58.905Z,24.13
2019-01-18T08:09:25.302Z,24.10
2019-01-18T08:11:52.864Z,24.11
2019-01-18T08:14:19.153Z,24.17
2019-01-18T08:16:45.556Z,24.15
2019-01-18T08:19:11.880Z,24.14
2019-01-18T08:21:38.219Z,24.16
2019-01-18T08:24:04.564Z,24.19
2019-01-18T08:26:30.899Z,24.16
2019-01-18T08:28:59.871Z,24.23
2019-01-18T08:31:29.048Z,24.28
2019-01-18T08:33:52.536Z,24.25
2019-01-18T08:36:18.878Z,24.28
2019-01-18T08:38:45.269Z,24.30
2019-01-18T08:41:12.988Z,24.30
2019-01-18T08:43:37.985Z,24.31
2019-01-18T08:46:04.323Z,24.27
2019-01-18T08:48:30.670Z,24.29
2019-01-18T08:50:57.005Z,24.23
2019-01-18T08:53:23.350Z,24.33
2019-01-18T08:55:50.754Z,24.23
2019-01-18T08:58:17.119Z,24.23
2019-01-18T09:00:43.471Z,24.21
2019-01-18T09:03:09.829Z,24.45
2019-01-18T09:05:37.469Z,24.30
2019-01-18T09:08:04.105Z,24.28
2019-01-18T09:10:30.456Z,24.42
2019-01-18T09:12:57.002Z,24.29
2019-01-18T09:15:23.342Z,24.32
2019-01-18T09:17:49.714Z,24.31
2019-01-18T09:20:16.109Z,24.29
2019-01-18T09:22:42.482Z,24.26
2019-01-18T09:25:08.930Z,24.16
2019-01-18T09:27:35.277Z,24.31
2019-01-18T09:30:01.604Z,24.14
2019-01-18T09:32:28.023Z,24.21
2019-01-18T09:34:54.969Z,24.28
2019-01-18T09:37:20.895Z,24.32
2019-01-18T09:39:47.279Z,24.25
2019-01-18T09:42:13.620Z,24.26
2019-01-18T09:44:40.019Z,24.30
2019-01-18T09:47:07.448Z,24.27
2019-01-18T09:49:32.785Z,24.28
2019-01-18T09:51:59.180Z,24.31
2019-01-18T09:54:25.613Z,24.15
2019-01-18T09:56:52.036Z,24.36
2019-01-18T09:59:18.426Z,24.28
2019-01-18T10:01:49.481Z,24.28
2019-01-18T10:04:12.310Z,24.28
2019-01-18T10:06:38.701Z,24.17
2019-01-18T10:09:05.043Z,24.27
2019-01-18T10:11:31.498Z,24.28
2019-01-18T10:13:57.843Z,24.35
2019-01-18T10:16:24.183Z,24.30
2019-01-18T10:18:50.586Z,24.32
2019-01-18T10:21:17.002Z,24.27
2019-01-18T10:23:43.430Z,24.29
2019-01-18T10:26:09.780Z,24.24
2019-01-18T10:28:36.148Z,24.21
2019-01-18T10:31:02.471Z,24.31
2019-01-18T10:33:29.706Z,24.23
2019-01-18T10:35:56.049Z,24.18
2019-01-18T10:38:22.377Z,24.32
2019-01-18T10:40:48.758Z,24.26
2019-01-18T10:43:15.098Z,24.35
2019-01-18T10:45:41.532Z,24.34
2019-01-18T10:48:07.866Z,24.42
2019-01-18T10:50:34.193Z,24.36
2019-01-18T10:53:00.602Z,24.41
2019-01-18T10:55:27.936Z,24.33
2019-01-18T10:57:54.328Z,24.34
2019-01-18T11:00:20.662Z,24.38
2019-01-18T11:02:47.047Z,24.51
2019-01-18T11:05:13.480Z,24.57
2019-01-18T11:07:39.879Z,24.49
2019-01-18T11:10:06.283Z,24.57
2019-01-18T11:12:32.695Z,24.48
2019-01-18T11:14:59.174Z,24.57
2019-01-18T11:17:25.657Z,24.65
2019-01-18T11:19:52.437Z,24.47
2019-01-18T11:22:18.921Z,24.48
2019-01-18T11:24:45.296Z,24.71
2019-01-18T11:27:11.686Z,24.65
2019-01-18T11:29:38.046Z,24.58
2019-01-18T11:32:04.425Z,24.66
2019-01-18T11:34:30.915Z,24.66
2019-01-18T11:36:58.267Z,24.78
2019-01-18T11:39:24.875Z,24.68
2019-01-18T11:41:51.305Z,24.76
2019-01-18T11:44:17.735Z,24.82
2019-01-18T11:46:44.066Z,24.79
2019-01-18T11:49:12.199Z,24.78
2019-01-18T11:51:38.676Z,24.76
2019-01-18T11:54:05.042Z,24.76
2019-01-18T11:56:31.529Z,24.76
2019-01-18T11:58:58.026Z,24.79
2019-01-18T12:01:24.434Z,24.82
2019-01-18T12:03:50.851Z,24.72
2019-01-18T12:06:17.207Z,24.68
2019-01-18T12:08:44.496Z,24.70
2019-01-18T12:11:11.065Z,24.64
2019-01-18T12:13:37.475Z,24.64
2019-01-18T12:16:06.077Z,24.58
2019-01-18T12:18:32.481Z,24.59
2019-01-18T12:20:59.176Z,24.68
2019-01-18T12:23:25.570Z,24.60
2019-01-18T12:25:51.984Z,24.53
2019-01-18T12:28:18.490Z,24.47
2019-01-18T12:30:44.905Z,24.53
2019-01-18T12:33:11.335Z,24.51
2019-01-18T12:35:37.734Z,24.49
2019-01-18T12:38:04.126Z,24.57
2019-01-18T12:40:30.511Z,24.59
2019-01-18T12:42:57.842Z,24.63
2019-01-18T12:45:23.265Z,24.70
2019-01-18T12:47:49.677Z,24.66
2019-01-18T12:50:16.060Z,24.64
2019-01-18T12:52:42.390Z,24.66
2019-01-18T12:55:08.933Z,24.66
2019-01-18T12:57:35.353Z,24.75
2019-01-18T13:00:01.699Z,24.74
2019-01-18T13:02:28.047Z,24.69
2019-01-18T13:04:54.458Z,24.78
2019-01-18T13:07:20.796Z,24.88
2019-01-18T13:09:47.220Z,24.69
2019-01-18T13:12:13.561Z,24.82
2019-01-18T13:14:42.171Z,24.77
2019-01-18T13:17:08.527Z,24.80
2019-01-18T13:19:34.920Z,24.79
2019-01-18T13:22:01.292Z,24.88
2019-01-18T13:24:27.664Z,24.82
2019-01-18T13:26:54.068Z,24.82
2019-01-18T13:29:20.461Z,24.82
2019-01-18T13:31:46.831Z,24.94
2019-01-18T13:34:15.440Z,25.02
2019-01-18T13:36:41.792Z,24.80
2019-01-18T13:39:08.163Z,24.91
2019-01-18T13:41:34.532Z,24.90
2019-01-18T13:44:00.872Z,24.86
2019-01-18T13:46:27.380Z,24.84
2019-01-18T13:48:53.805Z,24.82
2019-01-18T13:51:20.164Z,24.87
2019-01-18T13:53:46.568Z,24.79
2019-01-18T13:56:12.909Z,24.82
2019-01-18T13:58:41.408Z,24.80
2019-01-18T14:01:07.799Z,24.91
2019-01-18T14:03:34.146Z,24.93
2019-01-18T14:06:00.510Z,24.94
2019-01-18T14:08:26.853Z,24.79
2019-01-18T14:10:53.249Z,24.85
2019-01-18T14:13:19.613Z,24.80
2019-01-18T14:15:46.001Z,24.77
2019-01-18T14:18:12.367Z,24.80
2019-01-18T14:20:38.764Z,24.78
2019-01-18T14:23:05.215Z,24.83
2019-01-18T14:25:31.551Z,24.83
2019-01-18T14:27:57.923Z,24.88
2019-01-18T14:30:24.305Z,24.75
2019-01-18T14:32:55.467Z,24.75
2019-01-18T14:35:16.983Z,24.77
2019-01-18T14:37:43.503Z,24.83
2019-01-18T14:40:10.050Z,24.84
2019-01-18T14:42:36.432Z,24.84
2019-01-18T14:45:02.865Z,24.77
2019-01-18T14:47:29.195Z,24.82
2019-01-18T14:49:55.610Z,24.79
2019-01-18T14:52:21.956Z,24.73
2019-01-18T14:54:48.298Z,24.79
2019-01-18T14:57:14.740Z,24.75
2019-01-18T14:59:41.110Z,24.83
2019-01-18T15:02:07.444Z,24.85
2019-01-18T15:04:33.851Z,24.90
2019-01-18T15:07:00.208Z,24.74
2019-01-18T15:09:26.574Z,24.80
2019-01-18T15:11:52.910Z,25.01
2019-01-18T15:14:19.291Z,24.85
2019-01-18T15:16:45.627Z,24.72
2019-01-18T15:19:12.051Z,24.82
2019-01-18T15:21:38.486Z,24.68
2019-01-18T15:24:04.826Z,24.72
2019-01-18T15:26:31.168Z,24.70
2019-01-18T15:28:57.626Z,24.77
2019-01-18T15:31:24.104Z,24.70
2019-01-18T15:33:50.516Z,24.71
2019-01-18T15:36:16.917Z,24.77
2019-01-18T15:38:43.326Z,24.74
2019-01-18T15:41:09.796Z,24.73
2019-01-18T15:43:36.100Z,24.68
2019-01-18T15:46:02.479Z,24.60
2019-01-18T15:48:28.820Z,24.62
2019-01-18T15:50:55.230Z,24.54
2019-01-18T15:53:21.564Z,24.58
2019-01-18T15:55:47.902Z,24.61
2019-01-18T15:58:14.276Z,24.50
2019-01-18T16:00:40.626Z,24.54
2019-01-18T16:03:06.952Z,24.63
2019-01-18T16:05:33.280Z,24.64
2019-01-18T16:07:59.636Z,24.64
2019-01-18T16:10:26.067Z,24.65
2019-01-18T16:12:52.402Z,24.63
2019-01-18T16:15:18.751Z,24.68
2019-01-18T16:17:45.186Z,24.68
2019-01-18T16:20:11.521Z,24.62
2019-01-18T16:22:37.867Z,24.60
2019-01-18T16:25:04.258Z,24.61
2019-01-18T16:27:30.595Z,24.55
2019-01-18T16:29:56.945Z,24.57
2019-01-18T16:32:23.288Z,24.61
2019-01-18T16:34:49.635Z,24.55
2019-01-18T16:37:15.978Z,24.36
2019-01-18T16:39:42.309Z,24.38
2019-01-18T16:42:08.672Z,24.51
2019-01-18T16:44:35.112Z,24.45
2019-01-18T16:47:01.442Z,24.43
2019-01-18T16:49:31.070Z,24.43
2019-01-18T16:51:57.391Z,24.44
2019-01-18T16:54:23.724Z,24.43
2019-01-18T16:56:50.101Z,24.39
2019-01-18T16:59:16.537Z,24.39
2019-01-18T17:01:42.901Z,24.35
2019-01-18T17:04:09.235Z,24.36
2019-01-18T17:06:35.601Z,24.35
2019-01-18T17:09:02.002Z,24.31
2019-01-18T17:11:28.371Z,24.41
2019-01-18T17:13:54.745Z,24.27
2019-01-18T17:16:21.092Z,24.34
2019-01-18T17:18:47.416Z,24.30
2019-01-18T17:21:13.753Z,24.34
2019-01-18T17:23:40.117Z,24.27
2019-01-18T17:26:06.444Z,24.27
2019-01-18T17:28:32.799Z,24.31
2019-01-18T17:30:59.132Z,24.29
2019-01-18T17:33:25.511Z,24.24
2019-01-18T17:35:51.842Z,24.17
2019-01-18T17:38:18.242Z,24.19
2019-01-18T17:40:44.576Z,24.24
2019-01-18T17:43:11.031Z,24.21
2019-01-18T17:45:37.395Z,24.18
2019-01-18T17:48:03.738Z,24.19
2019-01-18T17:50:30.076Z,24.18
2019-01-18T17:52:56.454Z,24.20
2019-01-18T17:55:22.839Z,24.19
2019-01-18T17:57:49.167Z,24.16
2019-01-18T18:00:15.563Z,24.14
2019-01-18T18:02:41.915Z,24.10
2019-01-18T18:05:08.259Z,24.04
2019-01-18T18:07:34.638Z,24.02
2019-01-18T18:10:01.025Z,23.99
2019-01-18T18:12:27.381Z,23.92
2019-01-18T18:14:53.732Z,23.88
2019-01-18T18:17:20.140Z,23.86
2019-01-18T18:19:46.495Z,23.84
2019-01-18T18:22:12.837Z,23.80
2019-01-18T18:24:39.240Z,23.79
2019-01-18T18:27:05.531Z,23.76
2019-01-18T18:29:31.870Z,23.75
2019-01-18T18:31:58.265Z,23.68
2019-01-18T18:34:24.605Z,23.70
2019-01-18T18:36:50.937Z,23.69
2019-01-18T18:39:17.266Z,23.67
2019-01-18T18:41:43.656Z,23.66
2019-01-18T18:44:10.137Z,23.64
2019-01-18T18:46:36.459Z,23.60
2019-01-18T18:49:02.798Z,23.58
2019-01-18T18:51:29.145Z,23.58
2019-01-18T18:53:55.513Z,23.58
2019-01-18T18:56:21.887Z,23.55
2019-01-18T18:58:48.218Z,23.52
2019-01-18T19:01:14.548Z,23.51
2019-01-18T19:03:41.235Z,23.49
2019-01-18T19:06:07.248Z,23.49
2019-01-18T19:08:33.578Z,23.46
2019-01-18T19:10:59.919Z,23.46
2019-01-18T19:13:26.270Z,23.44
2019-01-18T19:15:52.615Z,23.40
2019-01-18T19:18:18.971Z,23.39
2019-01-18T19:20:45.291Z,23.37
2019-01-18T19:23:11.629Z,23.36
2019-01-18T19:25:38.014Z,23.35
2019-01-18T19:28:04.346Z,23.34
2019-01-18T19:30:30.686Z,23.30
2019-01-18T19:32:57.074Z,23.31
2019-01-18T19:35:23.405Z,23.30
2019-01-18T19:37:49.819Z,23.25
2019-01-18T19:40:16.158Z,23.24
2019-01-18T19:42:42.595Z,23.24
2019-01-18T19:45:08.925Z,23.23
2019-01-18T19:47:35.257Z,23.20
2019-01-18T19:50:01.595Z,23.17
2019-01-18T19:52:27.920Z,23.18
2019-01-18T19:54:54.251Z,23.15
2019-01-18T19:57:20.589Z,23.14
2019-01-18T19:59:46.976Z,23.11
2019-01-18T20:02:13.350Z,23.09
2019-01-18T20:04:39.737Z,23.06
2019-01-18T20:07:06.114Z,23.06
2019-01-18T20:09:32.418Z,23.02
2019-01-18T20:11:58.747Z,23.01
2019-01-18T20:14:25.146Z,22.96
2019-01-18T20:16:51.442Z,22.95
2019-01-18T20:19:18.527Z,22.96
2019-01-18T20:21:44.142Z,22.95
2019-01-18T20:24:10.476Z,22.88
2019-01-18T20:26:36.802Z,22.88
2019-01-18T20:29:03.159Z,22.86
2019-01-18T20:31:29.497Z,22.87
2019-01-18T20:33:55.896Z,22.86
2019-01-18T20:36:22.276Z,22.82
2019-01-18T20:38:48.629Z,22.80
2019-01-18T20:41:14.954Z,22.77
2019-01-18T20:43:41.336Z,22.71
2019-01-18T20:46:07.668Z,22.63
2019-01-18T20:48:33.990Z,22.55
2019-01-18T20:51:00.356Z,22.53
2019-01-18T20:53:26.725Z,22.49
2019-01-18T20:55:53.072Z,22.44
2019-01-18T20:58:19.418Z,22.42
2019-01-18T21:00:45.772Z,22.35
2019-01-18T21:03:12.146Z,22.36
2019-01-18T21:05:38.478Z,22.34
2019-01-18T21:08:04.841Z,22.28
2019-01-18T21:10:31.198Z,22.31
2019-01-18T21:12:57.529Z,22.26
2019-01-18T21:15:23.849Z,22.25
2019-01-18T21:17:50.199Z,22.22
2019-01-18T21:20:16.636Z,22.21
2019-01-18T21:22:43.070Z,22.19
2019-01-18T21:25:09.434Z,22.17
2019-01-18T21:27:35.781Z,22.17
2019-01-18T21:30:02.129Z,22.10
2019-01-18T21:32:28.441Z,22.11
2019-01-18T21:34:54.821Z,22.07
2019-01-18T21:37:21.145Z,22.07
2019-01-18T21:39:47.483Z,22.06
2019-01-18T21:42:13.894Z,22.09
2019-01-18T21:44:40.176Z,22.12
2019-01-18T21:47:06.486Z,22.05
2019-01-18T21:49:32.862Z,22.04
2019-01-18T21:51:59.148Z,22.04
2019-01-18T21:54:25.467Z,22.05
2019-01-18T21:56:51.879Z,22.02
2019-01-18T21:59:18.126Z,21.98
2019-01-18T22:01:44.462Z,21.94
2019-01-18T22:04:10.833Z,21.91
2019-01-18T22:06:37.183Z,21.91
2019-01-18T22:09:03.547Z,21.90
2019-01-18T22:11:29.908Z,21.89
2019-01-18T22:13:56.277Z,21.91
2019-01-18T22:16:22.618Z,21.84
2019-01-18T22:18:49.012Z,21.84
2019-01-18T22:21:15.365Z,21.79
2019-01-18T22:23:41.694Z,21.80
2019-01-18T22:26:08.152Z,21.76
2019-01-18T22:28:34.489Z,21.76
2019-01-18T22:31:00.882Z,21.74
2019-01-18T22:33:27.212Z,21.70
2019-01-18T22:35:53.552Z,21.73
2019-01-18T22:38:19.939Z,21.65
2019-01-18T22:40:46.266Z,21.63
2019-01-18T22:43:12.634Z,21.63
2019-01-18T22:45:38.961Z,21.59
2019-01-18T22:48:05.291Z,21.61
2019-01-18T22:50:31.615Z,21.59
2019-01-18T22:52:58.010Z,21.58
2019-01-18T22:55:24.368Z,21.54
2019-01-18T22:57:50.722Z,21.53
2019-01-18T23:00:17.073Z,21.54
2019-01-18T23:02:43.477Z,21.48
2019-01-18T23:05:09.868Z,21.52
2019-01-18T23:07:36.196Z,21.47
2019-01-18T23:10:02.526Z,21.47
2019-01-18T23:12:28.923Z,21.47
2019-01-18T23:14:55.260Z,21.42
2019-01-18T23:17:21.590Z,21.42
2019-01-18T23:19:47.926Z,21.39
2019-01-18T23:22:14.303Z,21.40
2019-01-18T23:24:40.633Z,21.42
2019-01-18T23:27:06.985Z,21.33
2019-01-18T23:29:33.367Z,21.36
2019-01-18T23:31:59.738Z,21.33
2019-01-18T23:34:27.183Z,21.32
2019-01-18T23:36:52.380Z,21.31
2019-01-18T23:39:18.727Z,21.28
2019-01-18T23:41:45.100Z,21.29
2019-01-18T23:44:11.438Z,21.24
2019-01-18T23:46:37.815Z,21.27
2019-01-18T23:49:04.132Z,21.25
2019-01-18T23:51:30.501Z,21.23
2019-01-18T23:53:56.827Z,21.23
2019-01-18T23:56:23.155Z,21.19
2019-01-18T23:58:49.497Z,21.23
